createdAt,value
2023-01-30T00:01:27.243Z,9.35
2023-01-30T00:03:54.131Z,9.18
2023-01-30T00:06:21.074Z,10.82
2023-01-30T00:08:47.802Z,11.55
2023-01-30T00:11:16.450Z,11.23
2023-01-30T00:13:43.536Z,10.30
2023-01-30T00:16:10.815Z,10.85
2023-01-30T00:18:38.920Z,11.98
2023-01-30T00:21:07.622Z,9.95
2023-01-30T00:23:35.436Z,10.50
2023-01-30T00:26:02.800Z,10.57
2023-01-30T00:28:29.520Z,9.85
2023-01-30T00:30:56.443Z,10.15
2023-01-30T00:33:24.985Z,9.95
2023-01-30T00:35:53.138Z,10.40
2023-01-30T00:38:21.327Z,9.95
2023-01-30T00:40:48.599Z,10.15
2023-01-30T00:43:35.878Z,9.93
2023-01-30T00:46:23.734Z,10.43
2023-01-30T00:48:50.490Z,11.05
2023-01-30T00:51:17.158Z,12.00
2023-01-30T00:53:43.858Z,11.20
2023-01-30T00:56:10.561Z,11.40
2023-01-30T00:58:37.249Z,12.23
2023-01-30T01:01:04.055Z,13.73
2023-01-30T01:03:30.795Z,12.45
2023-01-30T01:05:57.596Z,13.85
2023-01-30T01:08:24.309Z,13.48
2023-01-30T01:10:50.956Z,12.98
2023-01-30T01:13:17.647Z,14.15
2023-01-30T01:15:44.984Z,12.68
2023-01-30T01:18:11.669Z,15.00
2023-01-30T01:20:38.362Z,13.35
2023-01-30T01:23:05.161Z,14.05
2023-01-30T01:25:31.918Z,12.98
2023-01-30T01:27:58.607Z,14.90
2023-01-30T01:30:25.423Z,13.65
2023-01-30T01:32:52.091Z,14.13
2023-01-30T01:35:20.109Z,14.15
2023-01-30T01:37:47.155Z,14.30
2023-01-30T01:40:37.137Z,13.52
2023-01-30T01:43:15.776Z,13.07
2023-01-30T01:45:42.953Z,14.02
2023-01-30T01:48:14.819Z,14.07
2023-01-30T01:50:50.135Z,13.63
2023-01-30T01:53:19.292Z,12.98
2023-01-30T01:55:49.745Z,13.18
2023-01-30T01:58:20.978Z,13.95
2023-01-30T02:00:48.577Z,13.82
2023-01-30T02:03:19.639Z,14.20
2023-01-30T02:05:48.669Z,15.18
2023-01-30T02:08:18.525Z,14.55
2023-01-30T02:11:03.385Z,13.93
2023-01-30T02:13:30.141Z,13.93
2023-01-30T02:15:58.907Z,14.55
2023-01-30T02:18:25.864Z,13.07
2023-01-30T02:21:14.434Z,13.95
2023-01-30T02:24:13.038Z,13.63
2023-01-30T02:26:47.542Z,14.18
2023-01-30T02:29:24.019Z,14.13
2023-01-30T02:32:06.884Z,13.35
2023-01-30T02:34:48.791Z,12.88
2023-01-30T02:37:44.587Z,12.13
2023-01-30T02:40:25.215Z,11.88
2023-01-30T02:42:57.660Z,11.25
2023-01-30T02:45:32.735Z,10.75
2023-01-30T02:48:06.283Z,9.60
2023-01-30T02:50:40.363Z,9.95
2023-01-30T02:53:07.505Z,10.85
2023-01-30T02:55:34.634Z,10.32
2023-01-30T02:58:03.641Z,9.73
2023-01-30T03:00:51.496Z,9.35
2023-01-30T03:03:38.067Z,9.85
2023-01-30T03:06:42.376Z,8.43
2023-01-30T03:09:13.309Z,8.30
2023-01-30T03:11:43.103Z,7.93
2023-01-30T03:14:24.893Z,7.75
2023-01-30T03:16:54.093Z,7.32
2023-01-30T03:19:21.516Z,7.03
2023-01-30T03:21:48.375Z,5.60
2023-01-30T03:24:15.190Z,5.22
2023-01-30T03:26:56.684Z,5.38
2023-01-30T03:29:23.460Z,5.50
2023-01-30T03:31:50.283Z,7.35
2023-01-30T03:34:17.101Z,6.75
2023-01-30T03:36:44.075Z,6.82
2023-01-30T03:39:10.797Z,7.20
2023-01-30T03:41:37.542Z,6.65
2023-01-30T03:44:04.458Z,6.47
2023-01-30T03:46:31.289Z,7.28
2023-01-30T03:48:58.028Z,6.32
2023-01-30T03:51:24.736Z,6.35
2023-01-30T03:53:51.452Z,6.55
2023-01-30T03:56:18.339Z,6.40
2023-01-30T03:58:45.083Z,5.70
2023-01-30T04:01:11.826Z,4.50
2023-01-30T04:03:38.587Z,3.60
2023-01-30T04:06:05.560Z,3.75
2023-01-30T04:08:32.291Z,3.60
2023-01-30T04:10:59.008Z,3.70
2023-01-30T04:13:25.767Z,3.70
2023-01-30T04:15:52.529Z,3.55
2023-01-30T04:18:19.232Z,2.97
2023-01-30T04:20:46.189Z,3.05
2023-01-30T04:23:12.937Z,3.17
2023-01-30T04:25:39.608Z,2.78
2023-01-30T04:28:06.260Z,2.50
2023-01-30T04:30:32.902Z,2.47
2023-01-30T04:32:59.583Z,2.25
2023-01-30T04:35:26.308Z,2.10
2023-01-30T04:37:52.987Z,2.20
2023-01-30T04:40:19.707Z,2.08
2023-01-30T04:42:46.344Z,2.05
2023-01-30T04:45:13.154Z,1.85
2023-01-30T04:47:39.898Z,2.10
2023-01-30T04:50:07.049Z,2.08
2023-01-30T04:52:33.710Z,2.13
2023-01-30T04:55:00.354Z,1.73
2023-01-30T04:57:27.058Z,1.67
2023-01-30T04:59:53.744Z,1.75
2023-01-30T05:02:22.405Z,1.70
2023-01-30T05:04:50.669Z,1.88
2023-01-30T05:07:17.631Z,1.50
2023-01-30T05:09:44.400Z,1.50
2023-01-30T05:12:11.031Z,1.65
2023-01-30T05:14:41.202Z,1.60
2023-01-30T05:17:08.245Z,1.98
2023-01-30T05:19:35.261Z,1.67
2023-01-30T05:22:01.935Z,1.92
2023-01-30T05:24:28.595Z,1.70
2023-01-30T05:26:55.291Z,1.60
2023-01-30T05:29:21.992Z,1.70
2023-01-30T05:31:48.655Z,1.88
2023-01-30T05:34:15.340Z,1.85
2023-01-30T05:36:42.047Z,1.95
2023-01-30T05:39:08.717Z,1.60
2023-01-30T05:41:35.338Z,1.55
2023-01-30T05:44:02.015Z,1.42
2023-01-30T05:46:28.807Z,1.80
2023-01-30T05:48:55.597Z,1.60
2023-01-30T05:51:24.214Z,1.10
2023-01-30T05:53:51.303Z,1.77
2023-01-30T05:56:18.777Z,1.33
2023-01-30T05:58:54.432Z,1.80
2023-01-30T06:01:21.439Z,1.42
2023-01-30T06:03:48.945Z,1.63
2023-01-30T06:06:15.817Z,1.33
2023-01-30T06:08:42.673Z,1.50
2023-01-30T06:11:11.961Z,1.40
2023-01-30T06:13:38.833Z,1.50
2023-01-30T06:16:10.404Z,1.50
2023-01-30T06:18:37.155Z,1.40
2023-01-30T06:21:03.917Z,1.55
2023-01-30T06:23:30.836Z,1.42
2023-01-30T06:25:57.772Z,1.25
2023-01-30T06:28:25.276Z,1.38
2023-01-30T06:30:52.723Z,1.50
2023-01-30T06:33:19.977Z,1.30
2023-01-30T06:35:49.548Z,1.50
2023-01-30T06:38:16.706Z,1.20
2023-01-30T06:40:48.801Z,1.30
2023-01-30T06:43:15.625Z,1.40
2023-01-30T06:45:42.766Z,1.00
2023-01-30T06:48:09.601Z,1.30
2023-01-30T06:50:36.480Z,1.10
2023-01-30T06:53:05.296Z,1.27
2023-01-30T06:55:36.305Z,1.10
2023-01-30T06:58:06.787Z,1.30
2023-01-30T07:00:34.161Z,1.30
2023-01-30T07:03:00.943Z,1.60
2023-01-30T07:05:28.912Z,0.95
2023-01-30T07:07:55.892Z,1.17
2023-01-30T07:10:23.193Z,1.30
2023-01-30T07:12:49.859Z,1.13
2023-01-30T07:15:17.133Z,1.20
2023-01-30T07:17:44.137Z,2.40
2023-01-30T07:20:11.783Z,1.33
2023-01-30T07:22:38.533Z,1.00
2023-01-30T07:25:05.898Z,1.15
2023-01-30T07:27:32.736Z,1.48
2023-01-30T07:29:59.482Z,1.55
2023-01-30T07:32:26.258Z,1.27
2023-01-30T07:34:52.929Z,1.30
2023-01-30T07:37:19.639Z,1.38
2023-01-30T07:39:46.307Z,1.30
2023-01-30T07:42:12.996Z,1.20
2023-01-30T07:44:39.637Z,1.35
2023-01-30T07:47:06.420Z,1.45
2023-01-30T07:49:33.116Z,1.52
2023-01-30T07:51:59.771Z,1.45
2023-01-30T07:54:26.760Z,1.20
2023-01-30T07:56:53.628Z,1.48
2023-01-30T07:59:20.363Z,1.63
2023-01-30T08:01:47.059Z,1.55
2023-01-30T08:04:13.767Z,1.40
2023-01-30T08:06:40.475Z,1.17
2023-01-30T08:09:07.452Z,1.20
2023-01-30T08:11:34.810Z,1.05
2023-01-30T08:14:02.064Z,1.25
2023-01-30T08:16:28.928Z,1.50
2023-01-30T08:18:55.694Z,1.40
2023-01-30T08:21:22.534Z,1.63
2023-01-30T08:23:49.234Z,1.52
2023-01-30T08:26:16.017Z,1.40
2023-01-30T08:28:42.953Z,1.08
2023-01-30T08:31:11.964Z,1.52
2023-01-30T08:33:39.138Z,1.42
2023-01-30T08:36:06.113Z,1.10
2023-01-30T08:38:33.000Z,1.33
2023-01-30T08:41:00.970Z,1.10
2023-01-30T08:43:28.023Z,0.90
2023-01-30T08:45:55.332Z,1.20
2023-01-30T08:48:22.119Z,1.20
2023-01-30T08:50:52.198Z,1.08
2023-01-30T08:53:19.147Z,1.00
2023-01-30T08:55:46.248Z,1.27
2023-01-30T08:58:12.903Z,1.13
2023-01-30T09:00:39.795Z,1.08
2023-01-30T09:03:06.586Z,0.80
2023-01-30T09:05:33.292Z,0.93
2023-01-30T09:08:00.012Z,1.05
2023-01-30T09:10:26.938Z,1.17
2023-01-30T09:12:53.723Z,1.00
2023-01-30T09:15:20.395Z,0.90
2023-01-30T09:17:47.083Z,1.10
2023-01-30T09:20:13.956Z,1.08
2023-01-30T09:22:40.638Z,1.35
2023-01-30T09:25:08.238Z,1.10
2023-01-30T09:27:35.174Z,0.82
2023-01-30T09:30:01.918Z,1.00
2023-01-30T09:32:28.560Z,1.02
2023-01-30T09:34:55.234Z,1.05
2023-01-30T09:37:21.878Z,1.08
2023-01-30T09:39:48.591Z,0.85
2023-01-30T09:42:32.800Z,0.65
2023-01-30T09:45:11.497Z,1.00
2023-01-30T09:48:07.911Z,1.27
2023-01-30T09:51:12.843Z,0.90
2023-01-30T09:54:03.142Z,1.10
2023-01-30T09:56:29.956Z,1.27
2023-01-30T09:59:02.201Z,1.20
2023-01-30T10:01:56.353Z,1.40
2023-01-30T10:05:00.049Z,1.20
2023-01-30T10:07:56.141Z,1.13
2023-01-30T10:10:31.698Z,1.13
2023-01-30T10:13:23.379Z,1.10
2023-01-30T10:15:55.918Z,0.98
2023-01-30T10:18:25.405Z,0.90
2023-01-30T10:21:19.300Z,1.02
2023-01-30T10:24:21.259Z,1.05
2023-01-30T10:26:48.541Z,1.00
2023-01-30T10:29:30.674Z,1.00
2023-01-30T10:32:04.394Z,0.73
2023-01-30T10:34:33.704Z,0.77
2023-01-30T10:37:14.475Z,1.00
2023-01-30T10:39:59.083Z,1.10
2023-01-30T10:42:47.566Z,1.00
2023-01-30T10:45:24.419Z,1.00
2023-01-30T10:47:55.111Z,1.00
2023-01-30T10:50:40.380Z,0.80
2023-01-30T10:53:21.567Z,0.80
2023-01-30T10:55:52.911Z,1.00
2023-01-30T10:58:42.203Z,1.25
2023-01-30T11:01:26.019Z,1.00
2023-01-30T11:04:02.965Z,0.77
2023-01-30T11:06:30.185Z,0.80
2023-01-30T11:08:57.091Z,1.00
2023-01-30T11:11:29.591Z,0.90
2023-01-30T11:14:07.549Z,1.00
2023-01-30T11:16:45.887Z,0.80
2023-01-30T11:19:20.249Z,0.63
2023-01-30T11:21:55.547Z,0.93
2023-01-30T11:24:31.920Z,1.02
2023-01-30T11:27:18.830Z,0.90
2023-01-30T11:29:46.393Z,0.73
2023-01-30T11:32:16.269Z,0.85
2023-01-30T11:34:44.384Z,0.90
2023-01-30T11:37:44.282Z,1.30
2023-01-30T11:40:17.631Z,0.88
2023-01-30T11:42:46.791Z,0.82
2023-01-30T11:45:18.130Z,1.00
2023-01-30T11:48:04.956Z,1.13
2023-01-30T11:50:45.064Z,1.25
2023-01-30T11:53:24.039Z,1.20
2023-01-30T11:56:02.549Z,1.15
2023-01-30T11:58:35.112Z,0.82
2023-01-30T12:01:02.665Z,1.00
2023-01-30T12:03:30.329Z,1.13
2023-01-30T12:05:58.245Z,0.90
2023-01-30T12:08:40.994Z,0.90
2023-01-30T12:11:27.851Z,1.10
2023-01-30T12:14:14.513Z,0.73
2023-01-30T12:16:57.798Z,0.98
2023-01-30T12:19:48.075Z,0.80
2023-01-30T12:22:28.903Z,1.05
2023-01-30T12:25:00.597Z,0.80
2023-01-30T12:27:37.814Z,1.20
2023-01-30T12:30:20.538Z,0.70
2023-01-30T12:32:47.620Z,0.70
2023-01-30T12:35:18.174Z,0.60
2023-01-30T12:38:20.908Z,0.95
2023-01-30T12:40:50.741Z,0.90
2023-01-30T12:43:30.010Z,0.90
2023-01-30T12:46:20.621Z,1.05
2023-01-30T12:49:11.722Z,1.08
2023-01-30T12:52:01.177Z,1.23
2023-01-30T12:54:41.321Z,1.10
2023-01-30T12:57:16.887Z,1.40
2023-01-30T12:59:50.646Z,1.55
2023-01-30T13:02:31.840Z,1.55
2023-01-30T13:05:05.007Z,1.75
2023-01-30T13:07:46.595Z,2.03
2023-01-30T13:10:19.195Z,2.15
2023-01-30T13:13:21.978Z,2.13
2023-01-30T13:16:13.635Z,2.60
2023-01-30T13:19:06.174Z,2.58
2023-01-30T13:22:08.718Z,2.47
2023-01-30T13:24:41.025Z,2.85
2023-01-30T13:27:16.095Z,2.90
2023-01-30T13:29:43.588Z,3.20
2023-01-30T13:32:34.897Z,3.13
2023-01-30T13:35:04.931Z,3.28
2023-01-30T13:37:32.607Z,3.70
2023-01-30T13:40:05.019Z,3.67
2023-01-30T13:42:44.110Z,3.72
2023-01-30T13:45:35.181Z,2.90
2023-01-30T13:48:14.240Z,3.13
2023-01-30T13:51:11.312Z,3.33
2023-01-30T13:53:42.415Z,3.47
2023-01-30T13:56:32.951Z,3.35
2023-01-30T13:59:04.460Z,3.20
2023-01-30T14:01:59.435Z,3.15
2023-01-30T14:04:41.458Z,3.30
2023-01-30T14:07:31.166Z,3.90
2023-01-30T14:10:14.435Z,3.33
2023-01-30T14:12:45.190Z,3.65
2023-01-30T14:15:15.009Z,4.70
2023-01-30T14:17:57.933Z,4.63
2023-01-30T14:20:26.367Z,4.65
2023-01-30T14:23:01.586Z,5.00
2023-01-30T14:25:28.439Z,5.13
2023-01-30T14:28:01.763Z,6.30
2023-01-30T14:30:31.652Z,7.43
2023-01-30T14:33:00.196Z,6.80
2023-01-30T14:35:35.953Z,7.57
2023-01-30T14:38:21.201Z,11.18
2023-01-30T14:43:42.126Z,7.65
2023-01-30T14:46:18.014Z,7.38
2023-01-30T14:48:50.536Z,9.25
2023-01-30T14:51:24.184Z,9.75
2023-01-30T14:53:55.441Z,9.90
2023-01-30T14:56:43.903Z,8.90
2023-01-30T14:59:16.648Z,9.02
2023-01-30T15:02:12.405Z,8.30
2023-01-30T15:04:51.033Z,9.90
2023-01-30T15:07:23.353Z,8.98
2023-01-30T15:10:43.812Z,9.95
2023-01-30T15:13:41.603Z,9.40
2023-01-30T15:16:53.401Z,8.70
2023-01-30T15:19:45.480Z,8.05
2023-01-30T15:22:34.978Z,7.68
2023-01-30T15:25:24.924Z,8.20
2023-01-30T15:28:02.157Z,7.88
2023-01-30T15:31:02.930Z,8.38
2023-01-30T15:33:32.173Z,7.80
2023-01-30T15:36:00.236Z,7.55
2023-01-30T15:38:32.746Z,7.93
2023-01-30T15:41:05.045Z,7.35
2023-01-30T15:43:48.485Z,7.60
2023-01-30T15:46:46.342Z,7.85
2023-01-30T15:49:31.029Z,7.03
2023-01-30T15:52:02.548Z,6.53
2023-01-30T15:54:29.301Z,8.85
2023-01-30T15:56:58.216Z,7.32
2023-01-30T15:59:43.182Z,7.60
2023-01-30T16:02:23.957Z,7.07
2023-01-30T16:05:04.730Z,6.78
2023-01-30T16:07:31.500Z,6.85
2023-01-30T16:10:07.393Z,6.50
2023-01-30T16:12:36.460Z,7.00
2023-01-30T16:15:18.477Z,6.68
2023-01-30T16:17:58.039Z,6.43
2023-01-30T16:20:24.903Z,6.43
2023-01-30T16:22:51.874Z,6.90
2023-01-30T16:25:30.119Z,6.65
2023-01-30T16:27:58.515Z,6.45
2023-01-30T16:30:27.909Z,6.70
2023-01-30T16:32:56.016Z,6.07
2023-01-30T16:35:27.802Z,7.18
2023-01-30T16:37:56.995Z,7.40
2023-01-30T16:40:26.627Z,7.88
2023-01-30T16:43:15.561Z,7.82
2023-01-30T16:45:54.666Z,7.78
2023-01-30T16:48:30.771Z,7.65
2023-01-30T16:51:00.626Z,8.05
2023-01-30T16:53:30.134Z,7.32
2023-01-30T16:56:16.960Z,7.82
2023-01-30T16:58:51.568Z,7.22
2023-01-30T17:01:18.789Z,7.20
2023-01-30T17:03:54.046Z,6.80
2023-01-30T17:06:42.958Z,6.07
2023-01-30T17:09:31.625Z,6.88
2023-01-30T17:11:58.310Z,6.95
2023-01-30T17:14:27.284Z,7.35
2023-01-30T17:17:06.400Z,7.88
2023-01-30T17:19:33.454Z,8.27
2023-01-30T17:22:03.191Z,7.10
2023-01-30T17:24:30.035Z,7.43
2023-01-30T17:26:59.415Z,8.43
2023-01-30T17:29:43.901Z,8.00
2023-01-30T17:32:12.394Z,8.27
2023-01-30T17:34:41.017Z,7.22
2023-01-30T17:37:14.344Z,7.78
2023-01-30T17:39:41.060Z,7.65
2023-01-30T17:42:14.520Z,7.03
2023-01-30T17:44:41.560Z,7.68
2023-01-30T17:47:11.042Z,7.05
2023-01-30T17:49:37.755Z,7.05
2023-01-30T17:52:04.705Z,7.85
2023-01-30T17:54:31.421Z,7.80
2023-01-30T17:57:03.626Z,7.63
2023-01-30T17:59:31.163Z,8.38
2023-01-30T18:01:58.388Z,7.95
2023-01-30T18:04:25.166Z,8.15
2023-01-30T18:07:04.611Z,8.75
2023-01-30T18:09:31.977Z,8.40
2023-01-30T18:11:59.023Z,8.35
2023-01-30T18:14:25.794Z,8.75
2023-01-30T18:16:52.814Z,7.90
2023-01-30T18:19:23.877Z,7.65
2023-01-30T18:21:50.684Z,7.82
2023-01-30T18:24:18.417Z,9.13
2023-01-30T18:26:46.238Z,8.63
2023-01-30T18:29:13.663Z,8.32
2023-01-30T18:31:41.103Z,8.50
2023-01-30T18:34:09.677Z,8.40
2023-01-30T18:36:37.240Z,7.88
2023-01-30T18:39:04.324Z,8.35
2023-01-30T18:41:31.121Z,8.35
2023-01-30T18:43:59.617Z,9.00
2023-01-30T18:46:27.033Z,8.55
2023-01-30T18:48:55.508Z,9.13
2023-01-30T18:51:27.721Z,9.63
2023-01-30T18:53:55.028Z,9.80
2023-01-30T18:56:24.585Z,8.90
2023-01-30T18:58:54.017Z,9.20
2023-01-30T19:01:23.343Z,8.27
2023-01-30T19:03:50.359Z,9.25
2023-01-30T19:06:20.289Z,9.32
2023-01-30T19:08:47.038Z,8.73
2023-01-30T19:11:34.495Z,9.23
2023-01-30T19:14:01.551Z,9.55
2023-01-30T19:16:30.227Z,9.85
2023-01-30T19:18:57.279Z,10.10
2023-01-30T19:21:24.708Z,10.63
2023-01-30T19:23:51.740Z,11.07
2023-01-30T19:26:19.862Z,11.38
2023-01-30T19:28:46.680Z,12.13
2023-01-30T19:31:15.931Z,11.75
2023-01-30T19:33:43.634Z,12.15
2023-01-30T19:36:21.651Z,11.60
2023-01-30T19:38:49.794Z,12.85
2023-01-30T19:41:31.057Z,12.40
2023-01-30T19:44:01.101Z,12.13
2023-01-30T19:46:31.081Z,11.90
2023-01-30T19:48:58.031Z,11.52
2023-01-30T19:51:27.412Z,11.80
2023-01-30T19:53:59.506Z,11.75
2023-01-30T19:56:27.526Z,12.57
2023-01-30T19:58:55.653Z,13.52
2023-01-30T20:01:23.697Z,12.38
2023-01-30T20:03:50.569Z,12.60
2023-01-30T20:06:22.382Z,12.45
2023-01-30T20:08:53.045Z,12.75
2023-01-30T20:11:21.796Z,13.30
2023-01-30T20:13:49.493Z,12.55
2023-01-30T20:16:20.343Z,12.30
2023-01-30T20:18:48.925Z,12.38
2023-01-30T20:21:18.254Z,11.88
2023-01-30T20:23:45.843Z,10.68
2023-01-30T20:26:23.750Z,11.35
2023-01-30T20:28:50.817Z,10.13
2023-01-30T20:31:20.164Z,10.82
2023-01-30T20:33:47.766Z,10.52
2023-01-30T20:36:18.732Z,10.45
2023-01-30T20:38:46.667Z,9.80
2023-01-30T20:41:15.430Z,10.00
2023-01-30T20:43:45.555Z,9.75
2023-01-30T20:46:13.419Z,9.32
2023-01-30T20:48:40.628Z,9.32
2023-01-30T20:51:10.122Z,9.25
2023-01-30T20:53:38.263Z,8.88
2023-01-30T20:56:06.221Z,8.27
2023-01-30T20:58:33.120Z,9.77
2023-01-30T21:01:18.262Z,9.38
2023-01-30T21:03:46.171Z,9.10
2023-01-30T21:06:12.965Z,8.77
2023-01-30T21:08:39.846Z,8.88
2023-01-30T21:11:17.880Z,9.50
2023-01-30T21:13:45.031Z,9.00
2023-01-30T21:16:20.976Z,9.63
2023-01-30T21:18:49.997Z,9.60
2023-01-30T21:21:19.658Z,10.20
2023-01-30T21:23:50.836Z,10.55
2023-01-30T21:26:18.856Z,11.05
2023-01-30T21:28:46.141Z,11.85
2023-01-30T21:31:18.544Z,11.40
2023-01-30T21:33:45.381Z,11.57
2023-01-30T21:36:14.322Z,10.63
2023-01-30T21:38:59.788Z,11.48
2023-01-30T21:44:14.047Z,10.75
2023-01-30T21:46:42.763Z,10.65
2023-01-30T21:49:09.699Z,10.85
2023-01-30T21:51:36.939Z,9.88
2023-01-30T21:54:04.399Z,9.30
2023-01-30T21:56:31.667Z,9.30
2023-01-30T21:58:59.748Z,9.10
2023-01-30T22:01:26.834Z,8.68
2023-01-30T22:03:53.989Z,9.50
2023-01-30T22:06:21.245Z,9.15
2023-01-30T22:08:48.016Z,8.20
2023-01-30T22:11:16.479Z,8.65
2023-01-30T22:13:43.438Z,7.80
2023-01-30T22:16:12.851Z,7.65
2023-01-30T22:18:40.712Z,6.88
2023-01-30T22:21:11.046Z,7.10
2023-01-30T22:23:40.047Z,7.30
2023-01-30T22:26:07.892Z,6.63
2023-01-30T22:28:35.357Z,7.30
2023-01-30T22:31:09.110Z,6.70
2023-01-30T22:33:36.424Z,6.83
2023-01-30T22:36:05.064Z,7.03
2023-01-30T22:38:32.336Z,6.68
2023-01-30T22:41:07.476Z,7.15
2023-01-30T22:43:36.087Z,7.35
2023-01-30T22:46:07.806Z,8.63
2023-01-30T22:48:35.941Z,8.38
2023-01-30T22:51:17.447Z,9.20
2023-01-30T22:53:46.790Z,8.57
2023-01-30T22:56:15.899Z,10.15
2023-01-30T22:58:43.823Z,10.48
2023-01-30T23:01:21.945Z,10.38
2023-01-30T23:04:04.322Z,10.18
2023-01-30T23:06:31.403Z,10.38
2023-01-30T23:08:59.703Z,10.35
2023-01-30T23:11:30.338Z,10.27
2023-01-30T23:14:04.221Z,9.50
2023-01-30T23:16:32.848Z,9.30
2023-01-30T23:18:59.733Z,8.68
2023-01-30T23:21:31.875Z,8.20
2023-01-30T23:24:00.739Z,8.27
2023-01-30T23:26:30.711Z,8.05
2023-01-30T23:28:58.172Z,8.18
2023-01-30T23:31:26.678Z,8.52
2023-01-30T23:34:06.148Z,8.63
2023-01-30T23:36:33.594Z,8.27
2023-01-30T23:39:01.142Z,7.75
2023-01-30T23:41:30.197Z,8.35
2023-01-30T23:43:57.973Z,7.90
2023-01-30T23:46:30.147Z,8.50
2023-01-30T23:48:59.107Z,8.52
2023-01-30T23:51:28.292Z,7.55
2023-01-30T23:53:55.513Z,7.82
2023-01-30T23:56:23.624Z,7.72
2023-01-30T23:58:50.936Z,7.35
